createdAt,value
2018-11-13T00:01:48.358Z,83.57
2018-11-13T00:04:15.578Z,84.00
2018-11-13T00:06:42.930Z,83.86
2018-11-13T00:09:10.093Z,84.41
2018-11-13T00:11:37.508Z,83.54
2018-11-13T00:14:04.806Z,83.61
2018-11-13T00:16:32.053Z,84.28
2018-11-13T00:18:59.253Z,83.58
2018-11-13T00:21:26.500Z,84.92
2018-11-13T00:23:53.752Z,84.41
2018-11-13T00:26:20.996Z,85.25
2018-11-13T00:28:48.281Z,86.52
2018-11-13T00:31:15.518Z,86.33
2018-11-13T00:33:42.751Z,87.95
2018-11-13T00:36:10.004Z,88.02
2018-11-13T00:38:37.252Z,87.77
2018-11-13T00:41:05.358Z,89.29
2018-11-13T00:43:32.697Z,90.36
2018-11-13T00:46:00.021Z,91.00
2018-11-13T00:48:27.666Z,90.43
2018-11-13T00:50:54.540Z,90.90
2018-11-13T00:53:21.763Z,90.21
2018-11-13T00:55:49.050Z,90.66
2018-11-13T00:58:16.246Z,90.84
2018-11-13T01:00:43.527Z,91.69
2018-11-13T01:03:10.769Z,91.28
2018-11-13T01:05:38.140Z,91.93
2018-11-13T01:08:05.544Z,91.15
2018-11-13T01:10:32.790Z,91.19
2018-11-13T01:13:00.045Z,91.22
2018-11-13T01:15:27.325Z,91.08
2018-11-13T01:17:54.506Z,91.06
2018-11-13T01:20:21.801Z,91.75
2018-11-13T01:22:49.072Z,91.84
2018-11-13T01:25:16.809Z,92.07
2018-11-13T01:27:44.528Z,92.53
2018-11-13T01:30:12.571Z,91.63
2018-11-13T01:32:40.762Z,91.34
2018-11-13T01:35:09.326Z,90.93
2018-11-13T01:37:36.643Z,91.05
2018-11-13T01:40:05.765Z,91.19
2018-11-13T01:42:36.065Z,92.52
2018-11-13T01:45:07.732Z,92.27
2018-11-13T01:47:35.053Z,92.19
2018-11-13T01:50:02.363Z,91.61
2018-11-13T01:52:29.691Z,91.81
2018-11-13T01:54:56.876Z,93.25
2018-11-13T01:57:24.147Z,92.22
2018-11-13T01:59:51.362Z,92.30
2018-11-13T02:02:18.607Z,93.14
2018-11-13T02:04:45.879Z,94.03
2018-11-13T02:07:13.160Z,94.40
2018-11-13T02:09:40.408Z,93.57
2018-11-13T02:12:08.658Z,93.96
2018-11-13T02:14:35.893Z,95.64
2018-11-13T02:17:03.165Z,98.01
2018-11-13T02:19:30.438Z,98.40
2018-11-13T02:21:57.683Z,98.69
2018-11-13T02:24:24.953Z,98.19
2018-11-13T02:26:52.158Z,96.95
2018-11-13T02:29:19.442Z,95.45
2018-11-13T02:31:46.676Z,94.82
2018-11-13T02:34:13.846Z,94.17
2018-11-13T02:36:41.141Z,93.78
2018-11-13T02:39:09.270Z,94.17
2018-11-13T02:41:36.595Z,94.52
2018-11-13T02:44:04.062Z,94.96
2018-11-13T02:46:31.391Z,94.81
2018-11-13T02:48:58.644Z,95.77
2018-11-13T02:51:25.885Z,94.29
2018-11-13T02:53:53.167Z,94.90
2018-11-13T02:56:20.379Z,94.27
2018-11-13T02:58:47.647Z,94.85
2018-11-13T03:01:14.896Z,95.20
2018-11-13T03:03:42.180Z,95.65
2018-11-13T03:06:09.371Z,95.23
2018-11-13T03:08:36.639Z,96.08
2018-11-13T03:11:04.029Z,96.18
2018-11-13T03:13:31.379Z,95.90
2018-11-13T03:15:58.661Z,95.69
2018-11-13T03:18:25.889Z,96.36
2018-11-13T03:20:53.084Z,96.36
2018-11-13T03:23:20.353Z,95.85
2018-11-13T03:25:47.567Z,96.02
2018-11-13T03:28:14.820Z,95.22
2018-11-13T03:30:42.081Z,95.41
2018-11-13T03:33:09.303Z,95.58
2018-11-13T03:35:36.540Z,94.67
2018-11-13T03:38:03.805Z,94.83
2018-11-13T03:40:31.161Z,94.46
2018-11-13T03:42:58.427Z,94.51
2018-11-13T03:45:25.671Z,93.85
2018-11-13T03:47:52.904Z,93.09
2018-11-13T03:50:21.193Z,93.38
2018-11-13T03:52:48.632Z,93.07
2018-11-13T03:55:16.433Z,92.39
2018-11-13T03:57:44.563Z,92.50
2018-11-13T04:00:13.589Z,92.19
2018-11-13T04:02:41.178Z,92.17
2018-11-13T04:05:10.168Z,91.98
2018-11-13T04:07:49.451Z,91.32
2018-11-13T04:10:17.630Z,91.55
2018-11-13T04:12:45.114Z,91.01
2018-11-13T04:15:13.460Z,91.24
2018-11-13T04:17:40.888Z,91.39
2018-11-13T04:20:10.932Z,90.85
2018-11-13T04:22:38.177Z,91.72
2018-11-13T04:25:05.646Z,91.47
2018-11-13T04:27:32.878Z,90.83
2018-11-13T04:30:00.167Z,91.62
2018-11-13T04:32:27.431Z,92.49
2018-11-13T04:34:54.651Z,92.92
2018-11-13T04:37:21.879Z,94.12
2018-11-13T04:39:49.124Z,94.59
2018-11-13T04:42:16.479Z,94.36
2018-11-13T04:44:43.771Z,95.01
2018-11-13T04:47:11.116Z,94.66
2018-11-13T04:49:38.368Z,94.82
2018-11-13T04:52:05.812Z,95.12
2018-11-13T04:54:33.056Z,95.92
2018-11-13T04:57:00.330Z,96.96
2018-11-13T04:59:27.611Z,96.94
2018-11-13T05:01:55.025Z,96.53
2018-11-13T05:04:22.338Z,95.99
2018-11-13T05:06:49.544Z,96.25
2018-11-13T05:09:16.798Z,97.05
2018-11-13T05:11:44.164Z,96.84
2018-11-13T05:14:11.708Z,96.10
2018-11-13T05:16:38.978Z,96.20
2018-11-13T05:19:06.238Z,96.02
2018-11-13T05:21:33.566Z,96.42
2018-11-13T05:24:00.832Z,96.42
2018-11-13T05:26:28.111Z,96.90
2018-11-13T05:28:55.387Z,97.45
2018-11-13T05:31:22.669Z,97.45
2018-11-13T05:33:49.906Z,96.45
2018-11-13T05:36:17.096Z,97.16
2018-11-13T05:38:44.385Z,97.95
2018-11-13T05:41:11.653Z,97.44
2018-11-13T05:43:38.902Z,97.97
2018-11-13T05:46:06.152Z,97.90
2018-11-13T05:48:33.760Z,99.02
2018-11-13T05:51:01.097Z,99.45
2018-11-13T05:53:28.359Z,99.09
2018-11-13T05:55:55.638Z,98.65
2018-11-13T05:58:22.851Z,99.66
2018-11-13T06:00:50.110Z,99.33
2018-11-13T06:03:17.413Z,100.00
2018-11-13T06:05:44.798Z,100.00
2018-11-13T06:08:12.167Z,99.88
2018-11-13T06:10:39.445Z,100.00
2018-11-13T06:13:06.742Z,100.00
2018-11-13T06:15:33.985Z,100.00
2018-11-13T06:18:01.264Z,100.00
2018-11-13T06:20:28.434Z,99.53
2018-11-13T06:22:55.675Z,99.15
2018-11-13T06:25:22.888Z,100.00
2018-11-13T06:27:50.158Z,100.00
2018-11-13T06:30:19.794Z,100.00
2018-11-13T06:32:47.497Z,100.00
2018-11-13T06:35:14.709Z,100.00
2018-11-13T06:37:41.938Z,100.00
2018-11-13T06:40:09.628Z,100.00
2018-11-13T06:42:37.264Z,100.00
2018-11-13T06:45:05.800Z,100.00
2018-11-13T06:47:33.012Z,100.00
2018-11-13T06:50:00.260Z,100.00
2018-11-13T06:52:27.958Z,100.00
2018-11-13T06:56:06.860Z,100.00
2018-11-13T06:58:34.138Z,100.00
2018-11-13T07:01:01.412Z,100.00
2018-11-13T07:03:28.595Z,100.00
2018-11-13T07:05:55.864Z,100.00
2018-11-13T07:08:23.035Z,100.00
2018-11-13T07:10:50.402Z,100.00
2018-11-13T07:13:17.491Z,100.00
2018-11-13T07:15:44.819Z,100.00
2018-11-13T07:18:12.169Z,100.00
2018-11-13T07:20:39.385Z,100.00
2018-11-13T07:23:06.737Z,100.00
2018-11-13T07:25:34.091Z,100.00
2018-11-13T07:28:01.392Z,100.00
2018-11-13T07:30:28.663Z,100.00
2018-11-13T07:32:55.921Z,100.00
2018-11-13T07:35:23.286Z,100.00
2018-11-13T07:37:52.860Z,100.00
2018-11-13T07:40:20.332Z,100.00
2018-11-13T07:42:47.605Z,100.00
2018-11-13T07:45:15.209Z,100.00
2018-11-13T07:47:43.426Z,100.00
2018-11-13T07:50:11.346Z,100.00
2018-11-13T07:52:38.656Z,100.00
2018-11-13T07:55:06.653Z,100.00
2018-11-13T07:57:34.011Z,100.00
2018-11-13T08:00:01.245Z,100.00
2018-11-13T08:02:28.484Z,100.00
2018-11-13T08:04:55.685Z,100.00
2018-11-13T08:07:23.057Z,100.00
2018-11-13T08:09:50.275Z,100.00
2018-11-13T08:12:17.645Z,100.00
2018-11-13T08:14:45.144Z,100.00
2018-11-13T08:17:12.380Z,100.00
2018-11-13T08:19:39.603Z,100.00
2018-11-13T08:22:06.987Z,100.00
2018-11-13T08:24:34.248Z,100.00
2018-11-13T08:27:01.466Z,99.59
2018-11-13T08:29:28.722Z,100.00
2018-11-13T08:31:55.874Z,99.81
2018-11-13T08:34:23.107Z,100.00
2018-11-13T08:36:50.378Z,100.00
2018-11-13T08:39:17.695Z,100.00
2018-11-13T08:41:45.002Z,100.00
2018-11-13T08:44:12.315Z,100.00
2018-11-13T08:46:39.521Z,100.00
2018-11-13T08:49:06.938Z,100.00
2018-11-13T08:51:34.191Z,100.00
2018-11-13T08:54:01.473Z,100.00
2018-11-13T08:56:28.699Z,100.00
2018-11-13T08:58:55.978Z,100.00
2018-11-13T09:01:23.365Z,100.00
2018-11-13T09:03:50.608Z,100.00
2018-11-13T09:06:17.992Z,100.00
2018-11-13T09:08:45.236Z,100.00
2018-11-13T09:11:12.534Z,100.00
2018-11-13T09:13:39.693Z,100.00
2018-11-13T09:16:07.001Z,100.00
2018-11-13T09:18:34.238Z,100.00
2018-11-13T09:21:01.480Z,100.00
2018-11-13T09:23:28.726Z,100.00
2018-11-13T09:25:55.970Z,100.00
2018-11-13T09:28:23.238Z,99.78
2018-11-13T09:30:50.826Z,99.30
2018-11-13T09:33:17.731Z,98.26
2018-11-13T09:35:44.993Z,97.36
2018-11-13T09:38:12.270Z,97.34
2018-11-13T09:40:39.509Z,97.33
2018-11-13T09:43:06.748Z,93.48
2018-11-13T09:45:34.022Z,93.34
2018-11-13T09:48:01.281Z,93.89
2018-11-13T09:50:28.550Z,94.68
2018-11-13T09:52:55.729Z,95.69
2018-11-13T09:55:23.235Z,94.75
2018-11-13T09:57:50.594Z,94.07
2018-11-13T10:00:20.633Z,94.85
2018-11-13T10:02:49.753Z,95.06
2018-11-13T10:05:17.443Z,95.99
2018-11-13T10:07:45.044Z,94.53
2018-11-13T10:10:12.329Z,94.98
2018-11-13T10:12:39.549Z,94.35
2018-11-13T10:15:10.044Z,94.74
2018-11-13T10:17:37.791Z,95.21
2018-11-13T10:20:05.235Z,95.42
2018-11-13T10:22:32.454Z,96.18
2018-11-13T10:24:59.730Z,95.49
2018-11-13T10:27:26.900Z,95.26
2018-11-13T10:29:54.081Z,95.16
2018-11-13T10:32:21.405Z,95.61
2018-11-13T10:34:48.691Z,95.83
2018-11-13T10:37:15.976Z,95.32
2018-11-13T10:39:43.303Z,95.35
2018-11-13T10:42:10.502Z,96.46
2018-11-13T10:44:37.797Z,96.73
2018-11-13T10:47:05.097Z,96.03
2018-11-13T10:49:32.405Z,95.85
2018-11-13T10:51:59.682Z,95.56
2018-11-13T10:54:26.858Z,95.84
2018-11-13T10:56:54.106Z,95.31
2018-11-13T10:59:21.346Z,96.16
2018-11-13T11:01:54.270Z,95.85
2018-11-13T11:04:27.382Z,95.22
2018-11-13T11:06:54.571Z,95.01
2018-11-13T11:09:21.803Z,94.26
2018-11-13T11:11:49.031Z,94.36
2018-11-13T11:14:16.297Z,93.99
2018-11-13T11:16:43.476Z,93.63
2018-11-13T11:19:10.970Z,91.62
2018-11-13T11:21:38.177Z,92.89
2018-11-13T11:24:05.488Z,91.83
2018-11-13T11:26:32.804Z,90.49
2018-11-13T11:28:59.977Z,91.22
2018-11-13T11:31:27.234Z,90.96
2018-11-13T11:33:54.436Z,90.00
2018-11-13T11:36:21.669Z,89.98
2018-11-13T11:38:49.039Z,89.76
2018-11-13T11:41:16.187Z,89.51
2018-11-13T11:43:43.372Z,88.53
2018-11-13T11:46:10.658Z,88.24
2018-11-13T11:48:37.896Z,89.56
2018-11-13T11:51:05.210Z,89.89
2018-11-13T11:53:32.391Z,86.49
2018-11-13T11:55:59.687Z,87.75
2018-11-13T11:58:26.921Z,88.23
2018-11-13T12:00:54.119Z,88.32
2018-11-13T12:03:21.327Z,86.51
2018-11-13T12:05:48.563Z,86.33
2018-11-13T12:08:15.766Z,85.72
2018-11-13T12:10:43.052Z,85.88
2018-11-13T12:13:10.346Z,86.81
2018-11-13T12:15:37.631Z,86.72
2018-11-13T12:18:05.347Z,86.08
2018-11-13T12:20:32.584Z,85.80
2018-11-13T12:22:59.834Z,86.12
2018-11-13T12:25:27.036Z,84.04
2018-11-13T12:27:54.306Z,83.51
2018-11-13T12:30:22.764Z,84.53
2018-11-13T12:32:50.686Z,84.34
2018-11-13T12:35:18.915Z,82.57
2018-11-13T12:37:46.333Z,82.88
2018-11-13T12:40:14.925Z,80.40
2018-11-13T12:42:42.929Z,81.27
2018-11-13T12:45:10.524Z,81.24
2018-11-13T12:47:37.967Z,81.51
2018-11-13T12:50:06.545Z,81.13
2018-11-13T12:52:33.768Z,82.00
2018-11-13T12:55:01.037Z,82.53
2018-11-13T12:57:28.278Z,81.56
2018-11-13T12:59:55.622Z,83.33
2018-11-13T13:02:22.934Z,83.68
2018-11-13T13:04:50.136Z,82.97
2018-11-13T13:07:17.374Z,83.15
2018-11-13T13:09:44.610Z,82.48
2018-11-13T13:12:11.846Z,80.58
2018-11-13T13:14:39.196Z,82.09
2018-11-13T13:17:06.670Z,83.49
2018-11-13T13:19:33.912Z,82.20
2018-11-13T13:22:01.280Z,82.81
2018-11-13T13:24:28.542Z,81.87
2018-11-13T13:26:55.835Z,80.39
2018-11-13T13:29:23.077Z,81.35
2018-11-13T13:31:50.407Z,82.21
2018-11-13T13:34:17.590Z,81.39
2018-11-13T13:36:44.845Z,81.51
2018-11-13T13:39:12.120Z,81.88
2018-11-13T13:41:39.370Z,81.35
2018-11-13T13:44:07.073Z,79.97
2018-11-13T13:46:34.517Z,81.72
2018-11-13T13:49:01.795Z,81.44
2018-11-13T13:51:28.989Z,80.02
2018-11-13T13:53:56.404Z,80.65
2018-11-13T13:56:23.510Z,79.00
2018-11-13T13:58:50.718Z,78.31
2018-11-13T14:01:18.022Z,79.25
2018-11-13T14:03:45.304Z,77.76
2018-11-13T14:06:12.604Z,75.42
2018-11-13T14:08:39.835Z,74.48
2018-11-13T14:11:07.031Z,73.88
2018-11-13T14:13:34.371Z,75.04
2018-11-13T14:16:01.629Z,75.88
2018-11-13T14:18:28.886Z,76.78
2018-11-13T14:20:56.198Z,76.97
2018-11-13T14:23:23.389Z,75.41
2018-11-13T14:25:50.722Z,76.42
2018-11-13T14:28:17.989Z,76.66
2018-11-13T14:30:45.230Z,77.89
2018-11-13T14:33:12.824Z,77.48
2018-11-13T14:35:40.185Z,78.24
2018-11-13T14:38:07.347Z,78.53
2018-11-13T14:40:38.010Z,78.14
2018-11-13T14:43:05.287Z,77.73
2018-11-13T14:45:32.625Z,78.69
2018-11-13T14:48:00.030Z,78.52
2018-11-13T14:50:28.572Z,77.93
2018-11-13T14:52:56.009Z,78.54
2018-11-13T14:55:26.451Z,79.42
2018-11-13T14:57:54.080Z,79.35
2018-11-13T15:00:22.743Z,79.24
2018-11-13T15:02:50.604Z,80.33
2018-11-13T15:05:19.048Z,80.32
2018-11-13T15:07:47.448Z,79.52
2018-11-13T15:10:16.806Z,80.30
2018-11-13T15:12:44.108Z,79.75
2018-11-13T15:15:11.676Z,79.27
2018-11-13T15:17:39.590Z,79.56
2018-11-13T15:20:09.129Z,80.81
2018-11-13T15:22:36.399Z,81.00
2018-11-13T15:25:04.330Z,80.89
2018-11-13T15:27:31.603Z,79.79
2018-11-13T15:29:58.877Z,80.34
2018-11-13T15:32:26.102Z,80.50
2018-11-13T15:34:53.361Z,80.56
2018-11-13T15:37:20.580Z,81.61
2018-11-13T15:39:47.857Z,81.82
2018-11-13T15:42:15.056Z,82.58
2018-11-13T15:44:42.438Z,82.39
2018-11-13T15:47:09.726Z,82.71
2018-11-13T15:49:37.277Z,81.79
2018-11-13T15:52:04.602Z,82.28
2018-11-13T15:54:31.787Z,83.12
2018-11-13T15:56:59.034Z,82.31
2018-11-13T15:59:26.248Z,81.84
2018-11-13T16:01:53.496Z,81.58
2018-11-13T16:04:20.733Z,82.43
2018-11-13T16:06:47.986Z,83.50
2018-11-13T16:09:15.297Z,84.49
2018-11-13T16:11:42.533Z,85.72
2018-11-13T16:14:10.461Z,85.92
2018-11-13T16:16:37.678Z,86.49
2018-11-13T16:19:04.980Z,87.56
2018-11-13T16:21:32.254Z,87.86
2018-11-13T16:23:59.561Z,88.92
2018-11-13T16:26:26.798Z,88.65
2018-11-13T16:28:53.987Z,89.76
2018-11-13T16:31:21.295Z,89.28
2018-11-13T16:33:48.569Z,89.61
2018-11-13T16:36:16.281Z,89.08
2018-11-13T16:38:43.429Z,88.87
2018-11-13T16:41:10.750Z,88.87
2018-11-13T16:43:37.972Z,89.47
2018-11-13T16:46:05.731Z,89.14
2018-11-13T16:48:33.070Z,89.46
2018-11-13T16:51:00.349Z,89.84
2018-11-13T16:53:27.782Z,89.74
2018-11-13T16:55:56.047Z,89.89
2018-11-13T16:58:23.285Z,90.49
2018-11-13T17:00:50.513Z,90.39
2018-11-13T17:03:17.714Z,90.22
2018-11-13T17:05:45.131Z,89.62
2018-11-13T17:08:12.222Z,89.38
2018-11-13T17:10:40.657Z,89.06
2018-11-13T17:13:08.006Z,90.22
2018-11-13T17:15:35.283Z,91.02
2018-11-13T17:18:03.018Z,90.35
2018-11-13T17:20:30.355Z,90.34
2018-11-13T17:22:57.635Z,90.26
2018-11-13T17:25:28.241Z,90.07
2018-11-13T17:27:55.731Z,89.62
2018-11-13T17:30:26.715Z,89.30
2018-11-13T17:32:54.964Z,89.06
2018-11-13T17:35:25.933Z,89.03
2018-11-13T17:37:59.186Z,89.25
2018-11-13T17:40:27.795Z,89.59
2018-11-13T17:42:56.617Z,90.50
2018-11-13T17:45:26.417Z,90.31
2018-11-13T17:47:53.663Z,90.59
2018-11-13T17:50:23.129Z,90.05
2018-11-13T17:52:50.836Z,91.41
2018-11-13T17:55:24.062Z,91.69
2018-11-13T17:57:52.642Z,90.78
2018-11-13T18:00:22.317Z,91.04
2018-11-13T18:02:49.878Z,91.34
2018-11-13T18:05:18.346Z,91.77
2018-11-13T18:07:45.654Z,91.01
2018-11-13T18:10:13.042Z,91.05
2018-11-13T18:12:40.433Z,91.81
2018-11-13T18:15:10.566Z,92.51
2018-11-13T18:17:37.805Z,92.82
2018-11-13T18:20:07.134Z,93.37
2018-11-13T18:22:34.383Z,92.31
2018-11-13T18:25:04.521Z,91.47
2018-11-13T18:27:31.769Z,91.73
2018-11-13T18:29:59.027Z,91.69
2018-11-13T18:32:26.250Z,92.11
2018-11-13T18:34:54.789Z,92.59
2018-11-13T18:37:22.093Z,92.17
2018-11-13T18:39:49.262Z,91.85
2018-11-13T18:42:16.627Z,92.50
2018-11-13T18:44:44.045Z,92.33
2018-11-13T18:47:11.316Z,92.09
2018-11-13T18:49:38.658Z,92.66
2018-11-13T18:52:05.885Z,92.46
2018-11-13T18:54:33.089Z,91.82
2018-11-13T18:57:00.437Z,92.53
2018-11-13T18:59:27.654Z,92.70
2018-11-13T19:01:55.062Z,92.27
2018-11-13T19:04:22.412Z,91.59
2018-11-13T19:06:49.728Z,91.69
2018-11-13T19:09:17.029Z,91.83
2018-11-13T19:11:44.458Z,91.69
2018-11-13T19:14:12.162Z,91.64
2018-11-13T19:16:39.573Z,91.54
2018-11-13T19:19:07.036Z,91.39
2018-11-13T19:21:34.374Z,91.61
2018-11-13T19:24:01.749Z,91.98
2018-11-13T19:26:28.917Z,91.92
2018-11-13T19:28:56.110Z,91.82
2018-11-13T19:31:23.414Z,91.91
2018-11-13T19:33:50.650Z,92.03
2018-11-13T19:36:18.198Z,92.71
2018-11-13T19:38:45.485Z,93.12
2018-11-13T19:41:12.735Z,93.17
2018-11-13T19:43:40.048Z,92.65
2018-11-13T19:46:07.428Z,93.67
2018-11-13T19:48:34.705Z,93.37
2018-11-13T19:51:01.924Z,92.79
2018-11-13T19:53:29.150Z,92.99
2018-11-13T19:55:56.404Z,92.22
2018-11-13T19:58:24.060Z,91.58
2018-11-13T20:00:51.319Z,91.62
2018-11-13T20:03:18.553Z,91.21
2018-11-13T20:05:45.865Z,92.66
2018-11-13T20:08:13.099Z,92.56
2018-11-13T20:10:40.576Z,93.32
2018-11-13T20:13:08.661Z,93.75
2018-11-13T20:15:36.475Z,94.02
2018-11-13T20:18:03.845Z,93.71
2018-11-13T20:20:32.237Z,93.23
2018-11-13T20:23:00.468Z,93.25
2018-11-13T20:25:30.052Z,92.82
2018-11-13T20:27:57.392Z,94.43
2018-11-13T20:30:27.052Z,94.49
2018-11-13T20:32:54.484Z,95.10
2018-11-13T20:35:21.698Z,94.69
2018-11-13T20:37:49.707Z,93.74
2018-11-13T20:40:21.311Z,93.46
2018-11-13T20:42:49.818Z,93.36
2018-11-13T20:45:17.137Z,92.88
2018-11-13T20:47:44.372Z,93.01
2018-11-13T20:50:14.044Z,93.30
2018-11-13T20:52:46.594Z,93.24
2018-11-13T20:55:18.905Z,92.95
2018-11-13T20:57:46.157Z,93.10
2018-11-13T21:00:15.541Z,92.71
2018-11-13T21:02:43.198Z,92.69
2018-11-13T21:05:10.509Z,92.70
2018-11-13T21:07:37.976Z,92.44
2018-11-13T21:10:08.674Z,92.31
2018-11-13T21:12:35.991Z,92.88
2018-11-13T21:15:04.510Z,93.85
2018-11-13T21:17:32.107Z,94.52
2018-11-13T21:19:59.375Z,94.74
2018-11-13T21:22:26.721Z,94.58
2018-11-13T21:25:01.237Z,94.81
2018-11-13T21:27:28.972Z,95.17
2018-11-13T21:29:56.507Z,95.56
2018-11-13T21:32:23.774Z,95.79
2018-11-13T21:34:51.097Z,95.01
2018-11-13T21:37:18.567Z,94.43
2018-11-13T21:39:47.125Z,95.00
2018-11-13T21:42:14.456Z,94.58
2018-11-13T21:44:41.758Z,94.08
2018-11-13T21:47:09.165Z,93.19
2018-11-13T21:49:36.575Z,92.84
2018-11-13T21:52:04.012Z,92.92
2018-11-13T21:54:31.431Z,93.51
2018-11-13T21:56:58.721Z,93.36
2018-11-13T21:59:26.014Z,93.23
2018-11-13T22:01:56.766Z,93.30
2018-11-13T22:04:24.084Z,92.80
2018-11-13T22:06:51.448Z,92.61
2018-11-13T22:09:18.707Z,92.83
2018-11-13T22:11:45.994Z,93.43
2018-11-13T22:14:13.285Z,93.28
2018-11-13T22:16:40.719Z,93.37
2018-11-13T22:19:12.961Z,93.94
2018-11-13T22:21:40.277Z,93.64
2018-11-13T22:24:07.593Z,93.40
2018-11-13T22:26:34.912Z,95.03
2018-11-13T22:29:02.242Z,94.44
2018-11-13T22:31:29.839Z,94.45
2018-11-13T22:33:56.940Z,94.05
2018-11-13T22:36:24.302Z,93.50
2018-11-13T22:38:51.629Z,93.29
2018-11-13T22:41:18.905Z,93.38
2018-11-13T22:43:46.168Z,92.88
2018-11-13T22:46:13.510Z,93.25
2018-11-13T22:48:40.783Z,93.69
2018-11-13T22:51:08.043Z,93.60
2018-11-13T22:53:35.294Z,93.40
2018-11-13T22:56:02.614Z,92.76
2018-11-13T22:58:30.239Z,92.48
2018-11-13T23:00:57.268Z,92.06
2018-11-13T23:03:24.554Z,92.54
2018-11-13T23:05:51.831Z,92.25
2018-11-13T23:08:20.159Z,93.02
2018-11-13T23:10:48.434Z,92.57
2018-11-13T23:13:15.731Z,92.57
2018-11-13T23:15:43.046Z,92.22
2018-11-13T23:18:10.323Z,93.45
2018-11-13T23:20:37.686Z,93.30
2018-11-13T23:23:05.265Z,93.51
2018-11-13T23:25:32.536Z,92.54
2018-11-13T23:27:59.903Z,92.50
2018-11-13T23:30:27.779Z,91.14
2018-11-13T23:32:55.815Z,90.82
2018-11-13T23:35:23.966Z,91.06
2018-11-13T23:37:53.455Z,91.20
2018-11-13T23:40:21.974Z,91.25
2018-11-13T23:42:49.594Z,91.57
2018-11-13T23:45:17.986Z,91.57
2018-11-13T23:47:46.030Z,92.80
2018-11-13T23:50:13.412Z,92.95
2018-11-13T23:52:40.924Z,93.52
2018-11-13T23:55:09.430Z,93.62
2018-11-13T23:57:36.844Z,93.42
